createdAt,value
2018-06-23T00:00:54.334Z,13.15
2018-06-23T00:03:22.389Z,13.16
2018-06-23T00:05:50.456Z,13.16
2018-06-23T00:08:18.514Z,13.19
2018-06-23T00:10:46.599Z,13.19
2018-06-23T00:13:14.667Z,13.19
2018-06-23T00:15:42.883Z,13.21
2018-06-23T00:18:10.969Z,13.19
2018-06-23T00:20:39.088Z,13.23
2018-06-23T00:23:07.348Z,13.22
2018-06-23T00:25:40.837Z,13.21
2018-06-23T00:28:08.925Z,13.22
2018-06-23T00:30:37.025Z,13.21
2018-06-23T00:33:05.139Z,13.20
2018-06-23T00:35:33.368Z,13.08
2018-06-23T00:38:01.743Z,13.10
2018-06-23T00:40:29.812Z,13.08
2018-06-23T00:42:57.928Z,13.04
2018-06-23T00:45:26.004Z,13.02
2018-06-23T00:47:54.284Z,12.97
2018-06-23T00:50:22.349Z,12.94
2018-06-23T00:52:50.420Z,12.93
2018-06-23T00:55:18.489Z,12.85
2018-06-23T00:57:46.568Z,12.83
2018-06-23T01:00:14.663Z,12.81
2018-06-23T01:02:42.944Z,12.78
2018-06-23T01:05:11.080Z,12.74
2018-06-23T01:07:39.131Z,12.71
2018-06-23T01:10:07.732Z,12.66
2018-06-23T01:12:35.818Z,12.62
2018-06-23T01:15:03.875Z,12.61
2018-06-23T01:17:31.949Z,12.59
2018-06-23T01:20:00.028Z,12.51
2018-06-23T01:22:28.089Z,12.53
2018-06-23T01:24:56.168Z,12.52
2018-06-23T01:27:24.264Z,12.50
2018-06-23T01:29:52.322Z,12.45
2018-06-23T01:32:20.397Z,12.44
2018-06-23T01:34:48.463Z,12.41
2018-06-23T01:37:16.510Z,12.39
2018-06-23T01:39:44.658Z,12.36
2018-06-23T01:42:12.698Z,12.35
2018-06-23T01:44:40.754Z,12.36
2018-06-23T01:47:08.796Z,12.36
2018-06-23T01:49:36.904Z,12.34
2018-06-23T01:52:05.062Z,12.33
2018-06-23T01:54:33.152Z,12.34
2018-06-23T01:57:01.229Z,12.36
2018-06-23T01:59:29.380Z,12.37
2018-06-23T02:01:57.435Z,12.35
2018-06-23T02:04:25.512Z,12.36
2018-06-23T02:06:53.588Z,12.36
2018-06-23T02:09:21.636Z,12.37
2018-06-23T02:11:49.711Z,12.35
2018-06-23T02:14:23.111Z,12.36
2018-06-23T02:16:56.680Z,12.36
2018-06-23T02:19:30.152Z,12.36
2018-06-23T02:22:03.557Z,12.35
2018-06-23T02:24:36.885Z,12.34
2018-06-23T02:27:10.180Z,12.31
2018-06-23T02:29:43.706Z,12.27
2018-06-23T02:32:17.280Z,12.28
2018-06-23T02:34:50.604Z,12.26
2018-06-23T02:37:18.671Z,12.26
2018-06-23T02:39:46.711Z,12.25
2018-06-23T02:42:14.784Z,12.26
2018-06-23T02:44:42.821Z,12.26
2018-06-23T02:47:10.894Z,12.24
2018-06-23T02:49:39.128Z,12.24
2018-06-23T02:52:07.231Z,12.23
2018-06-23T02:54:35.409Z,12.24
2018-06-23T02:57:03.743Z,12.25
2018-06-23T02:59:31.847Z,12.26
2018-06-23T03:01:59.934Z,12.24
2018-06-23T03:04:28.017Z,12.27
2018-06-23T03:06:56.074Z,12.27
2018-06-23T03:09:24.132Z,12.27
2018-06-23T03:11:52.183Z,12.27
2018-06-23T03:14:20.231Z,12.27
2018-06-23T03:16:48.284Z,12.29
2018-06-23T03:19:16.349Z,12.30
2018-06-23T03:21:44.468Z,12.33
2018-06-23T03:24:12.556Z,12.32
2018-06-23T03:26:40.635Z,12.34
2018-06-23T03:29:08.769Z,12.35
2018-06-23T03:31:36.929Z,12.36
2018-06-23T03:34:05.108Z,12.39
2018-06-23T03:36:33.188Z,12.38
2018-06-23T03:39:01.256Z,12.41
2018-06-23T03:41:29.296Z,12.44
2018-06-23T03:43:57.348Z,12.45
2018-06-23T03:46:25.415Z,12.47
2018-06-23T03:48:53.488Z,12.51
2018-06-23T03:51:21.523Z,12.47
2018-06-23T03:53:49.593Z,12.51
2018-06-23T03:56:17.633Z,12.45
2018-06-23T03:58:45.721Z,12.43
2018-06-23T04:01:13.764Z,12.38
2018-06-23T04:03:41.839Z,12.34
2018-06-23T04:06:09.915Z,12.34
2018-06-23T04:08:37.972Z,12.29
2018-06-23T04:11:06.049Z,12.27
2018-06-23T04:13:34.116Z,12.28
2018-06-23T04:16:02.182Z,12.26
2018-06-23T04:18:30.280Z,12.24
2018-06-23T04:20:58.327Z,12.22
2018-06-23T04:23:26.376Z,12.20
2018-06-23T04:25:54.411Z,12.13
2018-06-23T04:28:22.489Z,12.07
2018-06-23T04:30:50.563Z,12.04
2018-06-23T04:33:18.624Z,11.93
2018-06-23T04:35:46.677Z,11.96
2018-06-23T04:38:14.734Z,11.94
2018-06-23T04:40:42.931Z,11.94
2018-06-23T04:43:11.011Z,11.92
2018-06-23T04:45:39.126Z,11.93
2018-06-23T04:48:07.236Z,11.92
2018-06-23T04:50:35.280Z,11.91
2018-06-23T04:53:03.351Z,11.91
2018-06-23T04:55:31.399Z,11.91
2018-06-23T04:57:59.510Z,11.93
2018-06-23T05:00:27.581Z,11.96
2018-06-23T05:02:56.744Z,12.00
2018-06-23T05:05:25.431Z,12.00
2018-06-23T05:07:53.527Z,12.04
2018-06-23T05:10:21.583Z,12.06
2018-06-23T05:12:49.901Z,12.09
2018-06-23T05:15:17.971Z,12.07
2018-06-23T05:17:46.192Z,12.10
2018-06-23T05:20:14.503Z,12.14
2018-06-23T05:22:42.546Z,12.17
2018-06-23T05:25:10.643Z,12.16
2018-06-23T05:27:38.762Z,12.21
2018-06-23T05:30:06.929Z,12.21
2018-06-23T05:32:35.044Z,12.18
2018-06-23T05:35:03.796Z,12.22
2018-06-23T05:37:32.264Z,12.26
2018-06-23T05:40:00.764Z,12.29
2018-06-23T05:42:28.837Z,12.33
2018-06-23T05:44:56.900Z,12.35
2018-06-23T05:47:25.128Z,12.37
2018-06-23T05:49:53.421Z,12.39
2018-06-23T05:52:22.000Z,12.40
2018-06-23T05:54:50.084Z,12.44
2018-06-23T05:57:18.216Z,12.46
2018-06-23T05:59:46.303Z,12.50
2018-06-23T06:02:15.116Z,12.53
2018-06-23T06:04:43.488Z,12.51
2018-06-23T06:07:11.827Z,12.52
2018-06-23T06:09:39.799Z,12.51
2018-06-23T06:12:07.872Z,12.48
2018-06-23T06:14:35.927Z,12.49
2018-06-23T06:17:36.360Z,12.53
2018-06-23T06:20:06.692Z,12.58
2018-06-23T06:22:37.041Z,12.63
2018-06-23T06:25:05.600Z,12.68
2018-06-23T06:27:33.687Z,12.71
2018-06-23T06:30:01.983Z,12.77
2018-06-23T06:32:30.355Z,12.78
2018-06-23T06:34:59.143Z,12.83
2018-06-23T06:37:27.197Z,12.82
2018-06-23T06:39:55.246Z,12.86
2018-06-23T06:42:23.311Z,12.93
2018-06-23T06:44:51.354Z,12.95
2018-06-23T06:47:20.207Z,12.98
2018-06-23T06:49:48.604Z,13.01
2018-06-23T06:52:16.783Z,13.04
2018-06-23T06:54:45.183Z,13.05
2018-06-23T06:57:13.394Z,13.05
2018-06-23T06:59:41.532Z,13.04
2018-06-23T07:02:09.825Z,13.03
2018-06-23T07:04:38.037Z,13.03
2018-06-23T07:07:06.163Z,13.01
2018-06-23T07:09:34.288Z,13.01
2018-06-23T07:12:02.363Z,13.02
2018-06-23T07:14:30.416Z,13.04
2018-06-23T07:16:58.910Z,13.08
2018-06-23T07:19:26.989Z,13.13
2018-06-23T07:21:55.059Z,13.17
2018-06-23T07:24:23.415Z,13.21
2018-06-23T07:26:51.496Z,13.32
2018-06-23T07:29:19.520Z,13.47
2018-06-23T07:31:47.641Z,13.65
2018-06-23T07:34:15.776Z,13.77
2018-06-23T07:36:43.841Z,13.97
2018-06-23T07:39:12.144Z,14.17
2018-06-23T07:41:40.431Z,14.27
2018-06-23T07:44:09.219Z,14.54
2018-06-23T07:46:37.335Z,14.84
2018-06-23T07:49:05.605Z,15.22
2018-06-23T07:51:33.801Z,15.66
2018-06-23T07:54:01.844Z,15.89
2018-06-23T07:56:29.900Z,16.01
2018-06-23T07:58:57.949Z,15.91
2018-06-23T08:01:26.111Z,15.84
2018-06-23T08:03:54.198Z,15.75
2018-06-23T08:06:22.248Z,15.58
2018-06-23T08:08:50.338Z,15.54
2018-06-23T08:11:18.391Z,15.45
2018-06-23T08:13:46.448Z,15.54
2018-06-23T08:16:14.543Z,15.64
2018-06-23T08:18:43.024Z,16.34
2018-06-23T08:21:11.121Z,16.97
2018-06-23T08:23:39.265Z,17.67
2018-06-23T08:26:07.494Z,18.36
2018-06-23T08:28:36.228Z,18.40
2018-06-23T08:31:05.108Z,17.72
2018-06-23T08:33:33.167Z,17.67
2018-06-23T08:36:01.331Z,17.35
2018-06-23T08:38:29.531Z,17.25
2018-06-23T08:40:57.612Z,17.13
2018-06-23T08:43:25.696Z,17.10
2018-06-23T08:45:53.991Z,17.25
2018-06-23T08:48:22.055Z,17.66
2018-06-23T08:50:50.111Z,17.61
2018-06-23T08:53:18.187Z,17.78
2018-06-23T08:55:46.243Z,17.94
2018-06-23T08:58:14.318Z,18.31
2018-06-23T09:00:42.365Z,18.66
2018-06-23T09:03:10.432Z,18.14
2018-06-23T09:05:38.489Z,18.45
2018-06-23T09:08:06.581Z,18.85
2018-06-23T09:10:34.687Z,18.36
2018-06-23T09:13:02.835Z,18.02
2018-06-23T09:15:30.920Z,18.12
2018-06-23T09:17:59.078Z,18.57
2018-06-23T09:20:27.301Z,18.89
2018-06-23T09:22:55.359Z,19.07
2018-06-23T09:25:23.405Z,19.10
2018-06-23T09:27:51.462Z,19.05
2018-06-23T09:30:19.508Z,19.04
2018-06-23T09:32:47.576Z,18.85
2018-06-23T09:35:15.649Z,18.26
2018-06-23T09:37:43.788Z,18.19
2018-06-23T09:40:11.971Z,18.18
2018-06-23T09:42:40.111Z,18.16
2018-06-23T09:45:08.356Z,18.02
2018-06-23T09:47:36.645Z,17.58
2018-06-23T09:50:04.721Z,17.77
2018-06-23T09:52:33.272Z,17.69
2018-06-23T09:55:01.348Z,17.85
2018-06-23T09:57:29.383Z,17.92
2018-06-23T09:59:57.474Z,18.01
2018-06-23T10:02:25.689Z,18.18
2018-06-23T10:04:53.771Z,18.38
2018-06-23T10:07:22.306Z,18.65
2018-06-23T10:09:58.286Z,18.39
2018-06-23T10:12:27.980Z,18.70
2018-06-23T10:14:56.542Z,18.79
2018-06-23T10:17:26.123Z,18.71
2018-06-23T10:19:54.471Z,18.98
2018-06-23T10:22:23.101Z,19.22
2018-06-23T10:24:51.406Z,19.43
2018-06-23T10:27:19.823Z,18.68
2018-06-23T10:29:48.177Z,18.85
2018-06-23T10:32:17.818Z,18.98
2018-06-23T10:34:47.261Z,18.36
2018-06-23T10:37:16.197Z,18.28
2018-06-23T10:39:46.042Z,18.03
2018-06-23T10:42:15.828Z,17.52
2018-06-23T10:44:43.990Z,17.13
2018-06-23T10:47:12.620Z,17.06
2018-06-23T10:49:41.528Z,17.06
2018-06-23T10:52:09.568Z,17.22
2018-06-23T10:54:40.020Z,17.32
2018-06-23T10:57:08.555Z,17.57
2018-06-23T10:59:36.722Z,17.81
2018-06-23T11:02:04.763Z,18.05
2018-06-23T11:04:32.913Z,18.29
2018-06-23T11:07:04.488Z,18.30
2018-06-23T11:09:35.362Z,18.70
2018-06-23T11:12:03.604Z,18.90
2018-06-23T11:14:32.094Z,19.01
2018-06-23T11:17:00.180Z,18.96
2018-06-23T11:19:28.313Z,18.56
2018-06-23T11:21:56.566Z,18.72
2018-06-23T11:24:24.641Z,18.31
2018-06-23T11:26:52.780Z,17.74
2018-06-23T11:29:20.863Z,18.45
2018-06-23T11:31:49.002Z,18.20
2018-06-23T11:34:17.096Z,18.77
2018-06-23T11:36:45.215Z,18.96
2018-06-23T11:39:13.338Z,18.94
2018-06-23T11:41:41.471Z,19.25
2018-06-23T11:44:09.802Z,19.58
2018-06-23T11:46:37.930Z,19.65
2018-06-23T11:49:05.980Z,19.99
2018-06-23T11:51:34.089Z,19.76
2018-06-23T11:54:02.200Z,19.95
2018-06-23T11:56:30.483Z,19.59
2018-06-23T11:58:58.573Z,19.81
2018-06-23T12:01:26.635Z,19.73
2018-06-23T12:03:54.992Z,19.40
2018-06-23T12:06:24.928Z,19.15
2018-06-23T12:08:53.303Z,19.33
2018-06-23T12:11:22.544Z,19.21
2018-06-23T12:13:50.663Z,19.31
2018-06-23T12:16:22.362Z,19.31
2018-06-23T12:18:50.677Z,19.52
2018-06-23T12:21:18.757Z,19.48
2018-06-23T12:23:47.128Z,19.60
2018-06-23T12:26:16.661Z,19.53
2018-06-23T12:28:45.518Z,19.52
2018-06-23T12:31:15.184Z,19.53
2018-06-23T12:33:43.306Z,19.78
2018-06-23T12:36:13.340Z,20.05
2018-06-23T12:38:42.242Z,20.17
2018-06-23T12:41:12.434Z,20.06
2018-06-23T12:43:40.586Z,20.13
2018-06-23T12:46:08.687Z,20.11
2018-06-23T12:48:36.883Z,20.03
2018-06-23T12:51:13.415Z,20.17
2018-06-23T12:53:44.076Z,20.21
2018-06-23T12:56:13.546Z,20.10
2018-06-23T12:58:42.878Z,20.00
2018-06-23T13:01:13.438Z,20.21
2018-06-23T13:03:44.202Z,20.22
2018-06-23T13:06:12.494Z,20.21
2018-06-23T13:08:47.687Z,20.12
2018-06-23T13:11:17.706Z,20.02
2018-06-23T13:13:47.873Z,20.28
2018-06-23T13:16:17.764Z,20.38
2018-06-23T13:18:48.340Z,20.41
2018-06-23T13:21:17.740Z,20.00
2018-06-23T13:23:48.201Z,19.66
2018-06-23T13:26:17.922Z,19.03
2018-06-23T13:28:47.135Z,19.17
2018-06-23T13:31:16.723Z,18.87
2018-06-23T13:33:46.649Z,19.25
2018-06-23T13:36:14.932Z,18.80
2018-06-23T13:38:48.981Z,18.86
2018-06-23T13:41:17.961Z,19.09
2018-06-23T13:43:47.752Z,18.94
2018-06-23T13:46:20.168Z,18.79
2018-06-23T13:48:49.388Z,18.82
2018-06-23T13:51:19.496Z,18.52
2018-06-23T13:53:47.732Z,18.45
2018-06-23T13:56:15.857Z,18.63
2018-06-23T13:58:44.114Z,18.81
2018-06-23T14:01:13.187Z,19.16
2018-06-23T14:03:41.416Z,19.51
2018-06-23T14:06:09.656Z,19.34
2018-06-23T14:08:38.411Z,19.62
2018-06-23T14:11:06.737Z,19.17
2018-06-23T14:13:35.110Z,19.13
2018-06-23T14:16:03.212Z,19.13
2018-06-23T14:18:31.336Z,19.27
2018-06-23T14:20:59.488Z,19.44
2018-06-23T14:23:27.667Z,18.78
2018-06-23T14:25:55.779Z,19.12
2018-06-23T14:28:23.839Z,18.58
2018-06-23T14:30:51.907Z,19.08
2018-06-23T14:33:19.996Z,19.19
2018-06-23T14:35:48.056Z,18.96
2018-06-23T14:38:16.106Z,19.18
2018-06-23T14:40:44.235Z,19.34
2018-06-23T14:43:12.452Z,19.49
2018-06-23T14:45:40.740Z,19.62
2018-06-23T14:48:08.989Z,19.51
2018-06-23T14:50:37.220Z,19.40
2018-06-23T14:53:05.787Z,19.63
2018-06-23T14:55:33.978Z,19.62
2018-06-23T14:58:02.115Z,19.26
2018-06-23T15:00:30.199Z,19.26
2018-06-23T15:02:58.248Z,19.45
2018-06-23T15:05:26.305Z,19.80
2018-06-23T15:07:54.380Z,19.57
2018-06-23T15:10:33.982Z,19.76
2018-06-23T15:13:14.084Z,19.64
2018-06-23T15:15:42.207Z,19.90
2018-06-23T15:18:10.325Z,19.86
2018-06-23T15:20:38.704Z,19.89
2018-06-23T15:23:07.205Z,19.51
2018-06-23T15:25:35.708Z,19.39
2018-06-23T15:28:04.216Z,19.11
2018-06-23T15:30:32.387Z,19.01
2018-06-23T15:33:00.593Z,18.99
2018-06-23T15:35:28.736Z,19.19
2018-06-23T15:37:56.819Z,19.12
2018-06-23T15:40:24.959Z,19.13
2018-06-23T15:42:52.977Z,18.95
2018-06-23T15:45:21.079Z,18.97
2018-06-23T15:47:49.174Z,19.12
2018-06-23T15:50:17.497Z,19.23
2018-06-23T15:52:45.752Z,19.34
2018-06-23T15:55:13.977Z,19.32
2018-06-23T15:57:42.848Z,19.31
2018-06-23T16:00:11.153Z,19.28
2018-06-23T16:02:39.459Z,19.30
2018-06-23T16:05:07.804Z,19.30
2018-06-23T16:07:36.232Z,19.14
2018-06-23T16:10:06.403Z,19.25
2018-06-23T16:12:34.609Z,19.23
2018-06-23T16:15:02.901Z,19.17
2018-06-23T16:17:31.057Z,19.07
2018-06-23T16:19:59.204Z,19.03
2018-06-23T16:22:27.394Z,18.98
2018-06-23T16:24:55.475Z,18.71
2018-06-23T16:27:23.601Z,19.03
2018-06-23T16:29:51.844Z,19.04
2018-06-23T16:32:19.904Z,18.65
2018-06-23T16:34:48.333Z,18.51
2018-06-23T16:37:16.460Z,18.49
2018-06-23T16:39:44.557Z,18.56
2018-06-23T16:42:12.867Z,18.24
2018-06-23T16:44:41.209Z,18.11
2018-06-23T16:47:09.408Z,18.08
2018-06-23T16:49:38.221Z,17.95
2018-06-23T16:52:06.755Z,17.82
2018-06-23T16:54:35.612Z,18.02
2018-06-23T16:57:03.990Z,17.83
2018-06-23T16:59:32.308Z,17.52
2018-06-23T17:02:00.420Z,17.42
2018-06-23T17:04:28.505Z,17.60
2018-06-23T17:06:56.551Z,17.43
2018-06-23T17:09:24.955Z,17.70
2018-06-23T17:11:53.024Z,17.66
2018-06-23T17:14:21.108Z,17.77
2018-06-23T17:16:49.218Z,17.80
2018-06-23T17:19:17.350Z,17.67
2018-06-23T17:21:45.880Z,17.58
2018-06-23T17:24:13.951Z,17.52
2018-06-23T17:26:42.900Z,17.55
2018-06-23T17:29:10.987Z,17.58
2018-06-23T17:31:39.044Z,17.44
2018-06-23T17:34:07.142Z,17.35
2018-06-23T17:36:36.203Z,17.51
2018-06-23T17:39:06.304Z,17.64
2018-06-23T17:41:34.475Z,17.61
2018-06-23T17:44:02.558Z,17.31
2018-06-23T17:46:30.691Z,17.20
2018-06-23T17:48:58.915Z,17.12
2018-06-23T17:51:27.068Z,17.09
2018-06-23T17:53:55.191Z,17.11
2018-06-23T17:56:23.350Z,16.87
2018-06-23T17:58:51.405Z,16.94
2018-06-23T18:01:19.728Z,16.98
2018-06-23T18:03:47.791Z,17.06
2018-06-23T18:06:15.838Z,16.89
2018-06-23T18:08:44.130Z,16.96
2018-06-23T18:11:12.393Z,16.98
2018-06-23T18:13:40.551Z,17.11
2018-06-23T18:16:08.705Z,16.82
2018-06-23T18:18:36.810Z,16.87
2018-06-23T18:21:04.944Z,16.73
2018-06-23T18:23:32.986Z,16.84
2018-06-23T18:26:01.497Z,16.89
2018-06-23T18:28:29.642Z,16.93
2018-06-23T18:30:57.695Z,16.93
2018-06-23T18:33:25.785Z,17.02
2018-06-23T18:35:53.876Z,16.91
2018-06-23T18:38:21.942Z,16.83
2018-06-23T18:40:49.985Z,16.93
2018-06-23T18:43:18.066Z,17.05
2018-06-23T18:45:46.148Z,16.99
2018-06-23T18:48:14.293Z,16.83
2018-06-23T18:50:42.439Z,16.71
2018-06-23T18:53:10.676Z,16.67
2018-06-23T18:55:39.111Z,16.64
2018-06-23T18:58:07.295Z,16.79
2018-06-23T19:00:35.566Z,16.64
2018-06-23T19:03:03.890Z,16.59
2018-06-23T19:05:32.295Z,16.73
2018-06-23T19:08:00.443Z,16.72
2018-06-23T19:10:28.521Z,16.74
2018-06-23T19:12:56.634Z,16.69
2018-06-23T19:15:24.731Z,16.67
2018-06-23T19:17:52.778Z,16.65
2018-06-23T19:20:20.843Z,16.42
2018-06-23T19:22:48.892Z,16.51
2018-06-23T19:25:16.998Z,16.55
2018-06-23T19:27:45.063Z,16.60
2018-06-23T19:30:13.483Z,16.59
2018-06-23T19:32:41.522Z,16.60
2018-06-23T19:35:09.588Z,16.60
2018-06-23T19:37:37.760Z,16.58
2018-06-23T19:40:05.863Z,16.52
2018-06-23T19:42:33.939Z,16.46
2018-06-23T19:45:02.090Z,16.34
2018-06-23T19:47:30.179Z,16.39
2018-06-23T19:49:58.291Z,16.31
2018-06-23T19:52:26.619Z,16.19
2018-06-23T19:54:54.768Z,16.16
2018-06-23T19:57:22.801Z,16.21
2018-06-23T19:59:50.867Z,16.17
2018-06-23T20:02:18.915Z,16.16
2018-06-23T20:04:46.958Z,16.13
2018-06-23T20:07:15.122Z,16.10
2018-06-23T20:09:43.261Z,16.06
2018-06-23T20:12:11.384Z,16.08
2018-06-23T20:14:39.860Z,16.12
2018-06-23T20:17:08.035Z,16.14
2018-06-23T20:19:36.381Z,16.13
2018-06-23T20:22:04.804Z,16.10
2018-06-23T20:24:32.951Z,16.09
2018-06-23T20:27:01.041Z,16.09
2018-06-23T20:29:29.103Z,16.10
2018-06-23T20:31:57.159Z,16.11
2018-06-23T20:34:25.231Z,16.09
2018-06-23T20:36:53.283Z,16.06
2018-06-23T20:39:21.372Z,16.01
2018-06-23T20:41:49.428Z,16.00
2018-06-23T20:44:17.483Z,15.95
2018-06-23T20:46:45.656Z,15.90
2018-06-23T20:49:13.731Z,15.81
2018-06-23T20:51:41.951Z,15.77
2018-06-23T20:54:10.107Z,15.73
2018-06-23T20:56:38.300Z,15.63
2018-06-23T20:59:06.640Z,15.55
2018-06-23T21:01:34.818Z,15.48
2018-06-23T21:04:02.928Z,15.45
2018-06-23T21:06:30.983Z,15.41
2018-06-23T21:08:59.064Z,15.34
2018-06-23T21:11:27.160Z,15.25
2018-06-23T21:13:55.361Z,15.22
2018-06-23T21:16:23.354Z,15.17
2018-06-23T21:18:51.415Z,15.06
2018-06-23T21:21:19.493Z,15.05
2018-06-23T21:23:47.692Z,14.98
2018-06-23T21:26:15.771Z,14.93
2018-06-23T21:28:43.973Z,14.89
2018-06-23T21:31:12.085Z,14.82
2018-06-23T21:33:40.142Z,14.77
2018-06-23T21:36:08.519Z,14.72
2018-06-23T21:38:36.723Z,14.65
2018-06-23T21:41:04.904Z,14.58
2018-06-23T21:43:32.988Z,14.52
2018-06-23T21:46:01.035Z,14.48
2018-06-23T21:48:29.200Z,14.42
2018-06-23T21:50:57.274Z,14.38
2018-06-23T21:53:25.627Z,14.33
2018-06-23T21:55:53.693Z,14.27
2018-06-23T21:58:21.758Z,14.22
2018-06-23T22:00:49.860Z,14.17
2018-06-23T22:03:17.935Z,14.14
2018-06-23T22:05:46.051Z,14.11
2018-06-23T22:08:14.163Z,14.06
2018-06-23T22:10:42.527Z,13.97
2018-06-23T22:13:10.704Z,13.93
2018-06-23T22:15:38.885Z,13.88
2018-06-23T22:18:07.100Z,13.86
2018-06-23T22:20:35.333Z,13.85
2018-06-23T22:23:03.535Z,13.84
2018-06-23T22:25:31.628Z,13.81
2018-06-23T22:27:59.777Z,13.78
2018-06-23T22:30:27.892Z,13.75
2018-06-23T22:32:55.975Z,13.71
2018-06-23T22:35:24.116Z,13.65
2018-06-23T22:37:52.199Z,13.61
2018-06-23T22:40:20.435Z,13.59
2018-06-23T22:42:48.493Z,13.54
2018-06-23T22:45:16.563Z,13.49
2018-06-23T22:47:44.675Z,13.47
2018-06-23T22:50:12.756Z,13.47
2018-06-23T22:52:41.354Z,13.47
2018-06-23T22:55:10.606Z,13.45
2018-06-23T22:57:39.021Z,13.42
2018-06-23T23:00:10.953Z,13.38
2018-06-23T23:02:39.111Z,13.36
2018-06-23T23:05:07.467Z,13.26
2018-06-23T23:07:35.684Z,13.24
2018-06-23T23:10:04.081Z,13.24
2018-06-23T23:12:32.132Z,13.25
2018-06-23T23:15:00.453Z,13.26
2018-06-23T23:17:28.792Z,13.27
2018-06-23T23:19:56.885Z,13.27
2018-06-23T23:22:24.975Z,13.26
2018-06-23T23:24:53.281Z,13.25
2018-06-23T23:27:21.356Z,13.23
2018-06-23T23:29:49.435Z,13.22
2018-06-23T23:32:17.475Z,13.20
2018-06-23T23:34:45.535Z,13.17
2018-06-23T23:37:13.727Z,13.15
2018-06-23T23:39:41.967Z,13.15
2018-06-23T23:42:10.164Z,13.15
2018-06-23T23:44:38.351Z,13.18
2018-06-23T23:47:07.128Z,13.21
2018-06-23T23:49:35.404Z,13.24
2018-06-23T23:52:04.127Z,13.24
2018-06-23T23:54:32.232Z,13.23
2018-06-23T23:57:00.407Z,13.23
2018-06-23T23:59:28.463Z,13.24
